sensor_id;sensor_type;location;lat;lon;timestamp;pressure;altitude;pressure_sealevel;temperature;humidity
56504;BME280;48812;51.606;-0.114;2023-04-06T00:01:24;100852.47;;;17.42;57.28
56504;BME280;48812;51.606;-0.114;2023-04-06T00:03:56;100853.38;;;17.41;57.53
56504;BME280;48812;51.606;-0.114;2023-04-06T00:06:29;100847.19;;;17.41;57.64
56504;BME280;48812;51.606;-0.114;2023-04-06T00:09:01;100835.66;;;17.39;57.38
56504;BME280;48812;51.606;-0.114;2023-04-06T00:11:33;100838.34;;;17.39;57.18
56504;BME280;48812;51.606;-0.114;2023-04-06T00:14:09;100839.31;;;17.38;57.61
56504;BME280;48812;51.606;-0.114;2023-04-06T00:16:42;100829.53;;;17.37;57.15
56504;BME280;48812;51.606;-0.114;2023-04-06T00:19:14;100835.84;;;17.36;57.39
56504;BME280;48812;51.606;-0.114;2023-04-06T00:21:47;100820.72;;;17.35;57.56
56504;BME280;48812;51.606;-0.114;2023-04-06T00:24:19;100823.41;;;17.35;57.11
56504;BME280;48812;51.606;-0.114;2023-04-06T00:26:51;100822.53;;;17.34;56.56
56504;BME280;48812;51.606;-0.114;2023-04-06T00:29:23;100818.13;;;17.33;57.11
56504;BME280;48812;51.606;-0.114;2023-04-06T00:31:56;100814.59;;;17.32;57.74
56504;BME280;48812;51.606;-0.114;2023-04-06T00:34:29;100810.19;;;17.31;57.20
56504;BME280;48812;51.606;-0.114;2023-04-06T00:37:03;100806.66;;;17.31;57.36
56504;BME280;48812;51.606;-0.114;2023-04-06T00:39:35;100804.03;;;17.29;57.58
56504;BME280;48812;51.606;-0.114;2023-04-06T00:42:10;100799.56;;;17.30;57.37
56504;BME280;48812;51.606;-0.114;2023-04-06T00:44:43;100800.50;;;17.29;57.09
56504;BME280;48812;51.606;-0.114;2023-04-06T00:47:16;100789.88;;;17.27;57.43
56504;BME280;48812;51.606;-0.114;2023-04-06T00:49:51;100788.16;;;17.26;57.11
56504;BME280;48812;51.606;-0.114;2023-04-06T00:52:26;100791.72;;;17.25;57.57
56504;BME280;48812;51.606;-0.114;2023-04-06T00:54:59;100781.09;;;17.24;57.62
56504;BME280;48812;51.606;-0.114;2023-04-06T00:57:32;100782.91;;;17.23;57.39
56504;BME280;48812;51.606;-0.114;2023-04-06T01:00:04;100773.16;;;17.22;56.91
56504;BME280;48812;51.606;-0.114;2023-04-06T01:02:38;100772.28;;;17.22;56.85
56504;BME280;48812;51.606;-0.114;2023-04-06T01:05:10;100768.75;;;17.21;57.32
56504;BME280;48812;51.606;-0.114;2023-04-06T01:07:52;100762.56;;;17.21;57.34
56504;BME280;48812;51.606;-0.114;2023-04-06T01:10:28;100759.94;;;17.19;57.19
56504;BME280;48812;51.606;-0.114;2023-04-06T01:13:07;100763.56;;;17.18;57.28
56504;BME280;48812;51.606;-0.114;2023-04-06T01:16:02;100759.13;;;17.17;56.99
56504;BME280;48812;51.606;-0.114;2023-04-06T01:18:46;100751.13;;;17.17;57.07
56504;BME280;48812;51.606;-0.114;2023-04-06T01:21:30;100741.38;;;17.16;57.28
56504;BME280;48812;51.606;-0.114;2023-04-06T01:24:18;100736.97;;;17.15;57.55
56504;BME280;48812;51.606;-0.114;2023-04-06T01:27:09;100736.97;;;17.15;57.07
56504;BME280;48812;51.606;-0.114;2023-04-06T01:30:04;100733.50;;;17.13;57.13
56504;BME280;48812;51.606;-0.114;2023-04-06T01:32:45;100725.50;;;17.13;57.01
56504;BME280;48812;51.606;-0.114;2023-04-06T01:35:21;100720.22;;;17.11;57.01
56504;BME280;48812;51.606;-0.114;2023-04-06T01:38:17;100728.31;;;17.10;57.44
56504;BME280;48812;51.606;-0.114;2023-04-06T01:40:51;100720.28;;;17.10;57.26
56504;BME280;48812;51.606;-0.114;2023-04-06T01:43:31;100708.81;;;17.08;57.17
56504;BME280;48812;51.606;-0.114;2023-04-06T01:46:12;100709.66;;;17.08;57.32
56504;BME280;48812;51.606;-0.114;2023-04-06T01:48:47;100705.31;;;17.06;56.97
56504;BME280;48812;51.606;-0.114;2023-04-06T01:51:28;100702.66;;;17.06;56.93
56504;BME280;48812;51.606;-0.114;2023-04-06T01:54:03;100705.31;;;17.06;57.04
56504;BME280;48812;51.606;-0.114;2023-04-06T01:56:54;100692.94;;;17.05;57.15
56504;BME280;48812;51.606;-0.114;2023-04-06T01:59:42;100692.94;;;17.05;57.35
56504;BME280;48812;51.606;-0.114;2023-04-06T02:02:25;100691.19;;;17.04;57.58
56504;BME280;48812;51.606;-0.114;2023-04-06T02:05:05;100687.72;;;17.02;57.11
56504;BME280;48812;51.606;-0.114;2023-04-06T02:07:37;100681.53;;;17.01;57.43
56504;BME280;48812;51.606;-0.114;2023-04-06T02:10:14;100680.63;;;17.01;56.95
56504;BME280;48812;51.606;-0.114;2023-04-06T02:12:48;100673.59;;;17.00;57.33
56504;BME280;48812;51.606;-0.114;2023-04-06T02:15:28;100666.50;;;16.99;56.99
56504;BME280;48812;51.606;-0.114;2023-04-06T02:18:00;100670.09;;;16.98;57.11
56504;BME280;48812;51.606;-0.114;2023-04-06T02:20:34;100668.38;;;16.96;56.97
56504;BME280;48812;51.606;-0.114;2023-04-06T02:23:06;100664.84;;;16.96;57.14
56504;BME280;48812;51.606;-0.114;2023-04-06T02:25:41;100665.72;;;16.96;57.17
56504;BME280;48812;51.606;-0.114;2023-04-06T02:28:13;100663.97;;;16.95;57.36
56504;BME280;48812;51.606;-0.114;2023-04-06T02:30:45;100659.56;;;16.94;57.29
56504;BME280;48812;51.606;-0.114;2023-04-06T02:33:22;100657.84;;;16.93;57.08
56504;BME280;48812;51.606;-0.114;2023-04-06T02:35:56;100661.44;;;16.92;57.33
56504;BME280;48812;51.606;-0.114;2023-04-06T02:38:29;100648.06;;;16.92;57.07
56504;BME280;48812;51.606;-0.114;2023-04-06T02:41:04;100649.88;;;16.92;57.20
56504;BME280;48812;51.606;-0.114;2023-04-06T02:43:36;100639.28;;;16.90;57.54
56504;BME280;48812;51.606;-0.114;2023-04-06T02:46:26;100634.88;;;16.89;57.11
56504;BME280;48812;51.606;-0.114;2023-04-06T02:48:58;100634.88;;;16.89;57.70
56504;BME280;48812;51.606;-0.114;2023-04-06T02:51:35;100627.81;;;16.88;57.37
56504;BME280;48812;51.606;-0.114;2023-04-06T02:54:24;100630.47;;;16.88;57.45
56504;BME280;48812;51.606;-0.114;2023-04-06T02:56:56;100627.88;;;16.87;57.20
56504;BME280;48812;51.606;-0.114;2023-04-06T02:59:37;100622.59;;;16.85;57.03
56504;BME280;48812;51.606;-0.114;2023-04-06T03:02:19;100615.53;;;16.84;57.23
56504;BME280;48812;51.606;-0.114;2023-04-06T03:04:54;100620.88;;;16.84;57.46
56504;BME280;48812;51.606;-0.114;2023-04-06T03:07:33;100618.25;;;16.83;57.08
56504;BME280;48812;51.606;-0.114;2023-04-06T03:10:06;100608.47;;;16.83;57.08
56504;BME280;48812;51.606;-0.114;2023-04-06T03:12:38;100607.59;;;16.83;57.69
56504;BME280;48812;51.606;-0.114;2023-04-06T03:15:23;100603.19;;;16.82;57.41
56504;BME280;48812;51.606;-0.114;2023-04-06T03:18:01;100598.78;;;16.81;57.39
56504;BME280;48812;51.606;-0.114;2023-04-06T03:20:39;100598.78;;;16.81;57.54
56504;BME280;48812;51.606;-0.114;2023-04-06T03:23:13;100595.31;;;16.78;57.18
56504;BME280;48812;51.606;-0.114;2023-04-06T03:25:48;100592.72;;;16.77;57.06
56504;BME280;48812;51.606;-0.114;2023-04-06T03:28:24;100594.47;;;16.78;57.06
56504;BME280;48812;51.606;-0.114;2023-04-06T03:31:02;100598.06;;;16.77;57.07
56504;BME280;48812;51.606;-0.114;2023-04-06T03:33:49;100594.53;;;16.76;57.48
56504;BME280;48812;51.606;-0.114;2023-04-06T03:36:27;100591.94;;;16.75;57.50
56504;BME280;48812;51.606;-0.114;2023-04-06T03:39:01;100586.59;;;16.75;57.27
56504;BME280;48812;51.606;-0.114;2023-04-06T03:41:36;100584.00;;;16.73;57.16
56504;BME280;48812;51.606;-0.114;2023-04-06T03:44:19;100582.19;;;16.74;57.09
56504;BME280;48812;51.606;-0.114;2023-04-06T03:46:53;100568.06;;;16.72;57.02
56504;BME280;48812;51.606;-0.114;2023-04-06T03:49:26;100574.31;;;16.71;57.13
56504;BME280;48812;51.606;-0.114;2023-04-06T03:51:58;100565.47;;;16.70;57.20
56504;BME280;48812;51.606;-0.114;2023-04-06T03:54:31;100564.59;;;16.70;57.79
56504;BME280;48812;51.606;-0.114;2023-04-06T03:57:04;100564.66;;;16.68;57.06
56504;BME280;48812;51.606;-0.114;2023-04-06T03:59:37;100573.53;;;16.69;57.33
56504;BME280;48812;51.606;-0.114;2023-04-06T04:02:09;100567.34;;;16.68;57.17
56504;BME280;48812;51.606;-0.114;2023-04-06T04:04:43;100564.75;;;16.67;57.27
56504;BME280;48812;51.606;-0.114;2023-04-06T04:07:16;100558.50;;;16.66;57.56
56504;BME280;48812;51.606;-0.114;2023-04-06T04:09:49;100557.66;;;16.66;57.12
56504;BME280;48812;51.606;-0.114;2023-04-06T04:12:21;100555.91;;;16.65;57.72
56504;BME280;48812;51.606;-0.114;2023-04-06T04:14:53;100550.56;;;16.65;57.28
56504;BME280;48812;51.606;-0.114;2023-04-06T04:17:27;100555.06;;;16.64;57.64
56504;BME280;48812;51.606;-0.114;2023-04-06T04:19:59;100554.19;;;16.64;57.09
56504;BME280;48812;51.606;-0.114;2023-04-06T04:22:31;100552.47;;;16.63;57.54
56504;BME280;48812;51.606;-0.114;2023-04-06T04:25:04;100545.41;;;16.62;57.39
56504;BME280;48812;51.606;-0.114;2023-04-06T04:27:39;100545.41;;;16.62;57.16
56504;BME280;48812;51.606;-0.114;2023-04-06T04:30:13;100547.25;;;16.59;57.07
56504;BME280;48812;51.606;-0.114;2023-04-06T04:32:47;100543.66;;;16.61;57.12
56504;BME280;48812;51.606;-0.114;2023-04-06T04:35:26;100547.25;;;16.59;57.61
56504;BME280;48812;51.606;-0.114;2023-04-06T04:37:58;100555.28;;;16.59;57.56
56504;BME280;48812;51.606;-0.114;2023-04-06T04:40:30;100553.56;;;16.58;57.34
56504;BME280;48812;51.606;-0.114;2023-04-06T04:43:12;100546.47;;;16.57;57.40
56504;BME280;48812;51.606;-0.114;2023-04-06T04:45:44;100540.28;;;16.57;57.17
56504;BME280;48812;51.606;-0.114;2023-04-06T04:48:29;100546.53;;;16.56;57.50
56504;BME280;48812;51.606;-0.114;2023-04-06T04:51:05;100543.03;;;16.55;57.40
56504;BME280;48812;51.606;-0.114;2023-04-06T04:53:53;100538.59;;;16.54;57.07
56504;BME280;48812;51.606;-0.114;2023-04-06T04:56:29;100537.75;;;16.54;56.95
56504;BME280;48812;51.606;-0.114;2023-04-06T04:59:11;100535.09;;;16.54;57.52
56504;BME280;48812;51.606;-0.114;2023-04-06T05:01:47;100540.50;;;16.52;57.75
56504;BME280;48812;51.606;-0.114;2023-04-06T05:04:31;100529.81;;;16.52;57.30
56504;BME280;48812;51.606;-0.114;2023-04-06T05:07:06;100536.97;;;16.52;57.78
56504;BME280;48812;51.606;-0.114;2023-04-06T05:09:41;100537.03;;;16.50;57.30
56504;BME280;48812;51.606;-0.114;2023-04-06T05:12:15;100536.16;;;16.50;57.39
56504;BME280;48812;51.606;-0.114;2023-04-06T05:15:03;100542.38;;;16.50;57.72
56504;BME280;48812;51.606;-0.114;2023-04-06T05:17:37;100533.53;;;16.48;57.25
56504;BME280;48812;51.606;-0.114;2023-04-06T05:20:11;100525.53;;;16.48;57.42
56504;BME280;48812;51.606;-0.114;2023-04-06T05:22:50;100529.16;;;16.47;57.36
56504;BME280;48812;51.606;-0.114;2023-04-06T05:25:22;100521.22;;;16.46;57.70
56504;BME280;48812;51.606;-0.114;2023-04-06T05:27:58;100520.38;;;16.45;57.50
56504;BME280;48812;51.606;-0.114;2023-04-06T05:30:35;100520.44;;;16.44;57.36
56504;BME280;48812;51.606;-0.114;2023-04-06T05:33:09;100513.28;;;16.44;57.70
56504;BME280;48812;51.606;-0.114;2023-04-06T05:36:02;100512.50;;;16.42;57.26
56504;BME280;48812;51.606;-0.114;2023-04-06T05:38:35;100515.19;;;16.42;57.45
56504;BME280;48812;51.606;-0.114;2023-04-06T05:41:18;100511.63;;;16.41;57.34
56504;BME280;48812;51.606;-0.114;2023-04-06T05:43:50;100516.09;;;16.41;57.78
56504;BME280;48812;51.606;-0.114;2023-04-06T05:46:24;100516.09;;;16.41;57.48
56504;BME280;48812;51.606;-0.114;2023-04-06T05:48:58;100513.38;;;16.43;57.58
56504;BME280;48812;51.606;-0.114;2023-04-06T05:51:34;100516.88;;;16.43;57.54
56504;BME280;48812;51.606;-0.114;2023-04-06T05:54:07;100516.81;;;16.45;57.85
56504;BME280;48812;51.606;-0.114;2023-04-06T05:56:39;100511.34;;;16.48;57.64
56504;BME280;48812;51.606;-0.114;2023-04-06T05:59:15;100509.47;;;16.50;57.17
56504;BME280;48812;51.606;-0.114;2023-04-06T06:01:49;100520.88;;;16.53;57.74
56504;BME280;48812;51.606;-0.114;2023-04-06T06:04:22;100520.72;;;16.56;57.05
56504;BME280;48812;51.606;-0.114;2023-04-06T06:06:58;100515.22;;;16.59;57.39
56504;BME280;48812;51.606;-0.114;2023-04-06T06:09:40;100509.75;;;16.63;57.56
56504;BME280;48812;51.606;-0.114;2023-04-06T06:12:34;100512.28;;;16.66;57.49
56504;BME280;48812;51.606;-0.114;2023-04-06T06:15:06;100518.25;;;16.71;57.11
56504;BME280;48812;51.606;-0.114;2023-04-06T06:17:46;100524.38;;;16.73;57.58
56504;BME280;48812;51.606;-0.114;2023-04-06T06:20:19;100519.84;;;16.75;57.07
56504;BME280;48812;51.606;-0.114;2023-04-06T06:22:57;100516.09;;;16.79;57.66
56504;BME280;48812;51.606;-0.114;2023-04-06T06:25:31;100525.69;;;16.83;57.52
56504;BME280;48812;51.606;-0.114;2023-04-06T06:28:04;100519.31;;;16.86;57.18
56504;BME280;48812;51.606;-0.114;2023-04-06T06:30:37;100521.00;;;16.88;57.51
56504;BME280;48812;51.606;-0.114;2023-04-06T06:33:10;100524.44;;;16.90;57.69
56504;BME280;48812;51.606;-0.114;2023-04-06T06:35:42;100528.78;;;16.93;57.18
56504;BME280;48812;51.606;-0.114;2023-04-06T06:38:19;100527.75;;;16.95;57.72
56504;BME280;48812;51.606;-0.114;2023-04-06T06:40:55;100524.09;;;16.98;57.25
56504;BME280;48812;51.606;-0.114;2023-04-06T06:43:31;100524.88;;;17.00;57.40
56504;BME280;48812;51.606;-0.114;2023-04-06T06:46:06;100524.78;;;17.02;57.98
56504;BME280;48812;51.606;-0.114;2023-04-06T06:48:38;100528.25;;;17.04;57.38
56504;BME280;48812;51.606;-0.114;2023-04-06T06:51:12;100523.69;;;17.06;57.22
56504;BME280;48812;51.606;-0.114;2023-04-06T06:53:48;100527.16;;;17.08;57.59
56504;BME280;48812;51.606;-0.114;2023-04-06T06:56:21;100518.19;;;17.09;57.50
56504;BME280;48812;51.606;-0.114;2023-04-06T06:58:55;100513.66;;;17.11;57.89
56504;BME280;48812;51.606;-0.114;2023-04-06T07:01:27;100502.81;;;17.14;57.16
56504;BME280;48812;51.606;-0.114;2023-04-06T07:04:00;100499.19;;;17.15;57.69
56504;BME280;48812;51.606;-0.114;2023-04-06T07:06:33;100504.41;;;17.18;57.56
56504;BME280;48812;51.606;-0.114;2023-04-06T07:09:06;100492.78;;;17.19;57.58
56504;BME280;48812;51.606;-0.114;2023-04-06T07:11:39;100492.69;;;17.21;57.77
56504;BME280;48812;51.606;-0.114;2023-04-06T07:14:11;100498.81;;;17.23;57.84
56504;BME280;48812;51.606;-0.114;2023-04-06T07:16:44;100514.78;;;17.24;57.37
56504;BME280;48812;51.606;-0.114;2023-04-06T07:19:20;100512.00;;;17.27;57.89
56504;BME280;48812;51.606;-0.114;2023-04-06T07:21:53;100526.13;;;17.29;57.93
56504;BME280;48812;51.606;-0.114;2023-04-06T07:24:25;100512.78;;;17.29;58.16
56504;BME280;48812;51.606;-0.114;2023-04-06T07:27:03;100518.03;;;17.31;58.22
56504;BME280;48812;51.606;-0.114;2023-04-06T07:29:35;100512.63;;;17.32;57.93
56504;BME280;48812;51.606;-0.114;2023-04-06T07:32:08;100517.88;;;17.34;57.89
56504;BME280;48812;51.606;-0.114;2023-04-06T07:34:40;100519.59;;;17.35;57.58
56504;BME280;48812;51.606;-0.114;2023-04-06T07:37:13;100517.81;;;17.36;58.13
56504;BME280;48812;51.606;-0.114;2023-04-06T07:39:45;100516.00;;;17.36;57.88
56504;BME280;48812;51.606;-0.114;2023-04-06T07:42:18;100522.19;;;17.37;57.88
56504;BME280;48812;51.606;-0.114;2023-04-06T07:44:52;100521.25;;;17.38;58.04
56504;BME280;48812;51.606;-0.114;2023-04-06T07:47:24;100522.19;;;17.37;57.73
56504;BME280;48812;51.606;-0.114;2023-04-06T07:49:57;100523.94;;;17.38;57.88
56504;BME280;48812;51.606;-0.114;2023-04-06T07:52:29;100529.28;;;17.38;57.92
56504;BME280;48812;51.606;-0.114;2023-04-06T07:55:04;100517.75;;;17.37;57.86
56504;BME280;48812;51.606;-0.114;2023-04-06T07:57:37;100530.13;;;17.38;57.40
56504;BME280;48812;51.606;-0.114;2023-04-06T08:00:11;100525.66;;;17.39;57.97
56504;BME280;48812;51.606;-0.114;2023-04-06T08:02:43;100530.13;;;17.38;57.49
56504;BME280;48812;51.606;-0.114;2023-04-06T08:05:20;100531.00;;;17.39;57.73
56504;BME280;48812;51.606;-0.114;2023-04-06T08:07:54;100524.78;;;17.38;57.50
56504;BME280;48812;51.606;-0.114;2023-04-06T08:10:29;100532.72;;;17.40;57.74
56504;BME280;48812;51.606;-0.114;2023-04-06T08:13:02;100531.81;;;17.41;57.92
56504;BME280;48812;51.606;-0.114;2023-04-06T08:15:35;100532.72;;;17.40;57.75
56504;BME280;48812;51.606;-0.114;2023-04-06T08:18:08;100538.84;;;17.42;58.33
56504;BME280;48812;51.606;-0.114;2023-04-06T08:20:47;100536.19;;;17.42;58.00
56504;BME280;48812;51.606;-0.114;2023-04-06T08:23:21;100534.41;;;17.42;57.58
56504;BME280;48812;51.606;-0.114;2023-04-06T08:25:56;100537.94;;;17.43;57.76
56504;BME280;48812;51.606;-0.114;2023-04-06T08:28:29;100537.94;;;17.43;57.98
56504;BME280;48812;51.606;-0.114;2023-04-06T08:31:05;100545.03;;;17.44;58.33
56504;BME280;48812;51.606;-0.114;2023-04-06T08:33:40;100540.59;;;17.43;57.66
56504;BME280;48812;51.606;-0.114;2023-04-06T08:36:13;100537.06;;;17.42;57.46
56504;BME280;48812;51.606;-0.114;2023-04-06T08:38:46;100544.22;;;17.42;57.68
56504;BME280;48812;51.606;-0.114;2023-04-06T08:41:19;100540.69;;;17.41;58.05
56504;BME280;48812;51.606;-0.114;2023-04-06T08:46:23;100536.19;;;17.42;58.36
56504;BME280;48812;51.606;-0.114;2023-04-06T08:49:02;100548.63;;;17.43;57.88
56504;BME280;48812;51.606;-0.114;2023-04-06T08:51:37;100545.94;;;17.43;57.18
56504;BME280;48812;51.606;-0.114;2023-04-06T08:54:11;100537.94;;;17.43;57.43
56504;BME280;48812;51.606;-0.114;2023-04-06T08:56:46;100539.69;;;17.44;58.19
56504;BME280;48812;51.606;-0.114;2023-04-06T08:59:23;100544.06;;;17.45;57.71
56504;BME280;48812;51.606;-0.114;2023-04-06T09:01:56;100541.38;;;17.45;57.63
56504;BME280;48812;51.606;-0.114;2023-04-06T09:04:28;100551.16;;;17.46;57.40
56504;BME280;48812;51.606;-0.114;2023-04-06T09:07:01;100553.81;;;17.46;57.57
56504;BME280;48812;51.606;-0.114;2023-04-06T09:09:35;100544.06;;;17.45;57.82
56504;BME280;48812;51.606;-0.114;2023-04-06T09:12:09;100551.22;;;17.44;58.05
56504;BME280;48812;51.606;-0.114;2023-04-06T09:14:44;100548.63;;;17.43;58.11
56504;BME280;48812;51.606;-0.114;2023-04-06T09:17:23;100551.28;;;17.43;57.88
56504;BME280;48812;51.606;-0.114;2023-04-06T09:20:00;100551.28;;;17.43;57.64
56504;BME280;48812;51.606;-0.114;2023-04-06T09:22:39;100553.09;;;17.42;57.78
56504;BME280;48812;51.606;-0.114;2023-04-06T09:25:18;100553.09;;;17.42;57.92
56504;BME280;48812;51.606;-0.114;2023-04-06T09:28:02;100553.97;;;17.43;58.15
56504;BME280;48812;51.606;-0.114;2023-04-06T09:30:34;100552.22;;;17.42;58.15
56504;BME280;48812;51.606;-0.114;2023-04-06T09:33:11;100556.63;;;17.43;57.85
56504;BME280;48812;51.606;-0.114;2023-04-06T09:35:49;100563.81;;;17.42;58.04
56504;BME280;48812;51.606;-0.114;2023-04-06T09:38:21;100562.91;;;17.42;57.10
56504;BME280;48812;51.606;-0.114;2023-04-06T09:40:55;100559.31;;;17.43;58.04
56504;BME280;48812;51.606;-0.114;2023-04-06T09:43:33;100553.97;;;17.43;57.50
56504;BME280;48812;51.606;-0.114;2023-04-06T09:46:06;100559.38;;;17.41;57.46
56504;BME280;48812;51.606;-0.114;2023-04-06T09:48:38;100557.66;;;17.40;57.84
56504;BME280;48812;51.606;-0.114;2023-04-06T09:51:12;100559.47;;;17.40;57.55
56504;BME280;48812;51.606;-0.114;2023-04-06T09:53:47;100559.47;;;17.40;57.15
56504;BME280;48812;51.606;-0.114;2023-04-06T09:56:23;100558.53;;;17.41;57.77
56504;BME280;48812;51.606;-0.114;2023-04-06T09:59:01;100554.13;;;17.40;57.47
56504;BME280;48812;51.606;-0.114;2023-04-06T10:01:35;100555.84;;;17.41;57.96
56504;BME280;48812;51.606;-0.114;2023-04-06T10:06:45;100557.56;;;17.42;57.62
56504;BME280;48812;51.606;-0.114;2023-04-06T10:09:21;100561.22;;;17.41;57.45
56504;BME280;48812;51.606;-0.114;2023-04-06T10:11:57;100554.13;;;17.40;57.94
56504;BME280;48812;51.606;-0.114;2023-04-06T10:14:31;100567.47;;;17.40;57.91
56504;BME280;48812;51.606;-0.114;2023-04-06T10:17:06;100558.59;;;17.39;57.69
56504;BME280;48812;51.606;-0.114;2023-04-06T10:19:46;100563.06;;;17.39;57.80
56504;BME280;48812;51.606;-0.114;2023-04-06T10:22:26;100560.38;;;17.39;57.62
56504;BME280;48812;51.606;-0.114;2023-04-06T10:25:03;100563.94;;;17.39;57.60
56504;BME280;48812;51.606;-0.114;2023-04-06T10:27:39;100565.66;;;17.40;57.36
56504;BME280;48812;51.606;-0.114;2023-04-06T10:30:14;100563.06;;;17.39;57.34
56504;BME280;48812;51.606;-0.114;2023-04-06T10:32:47;100570.16;;;17.40;57.21
56504;BME280;48812;51.606;-0.114;2023-04-06T10:35:20;100567.47;;;17.40;57.45
56504;BME280;48812;51.606;-0.114;2023-04-06T10:37:59;100571.91;;;17.41;57.38
56504;BME280;48812;51.606;-0.114;2023-04-06T10:40:37;100571.91;;;17.41;57.68
56504;BME280;48812;51.606;-0.114;2023-04-06T10:43:11;100571.91;;;17.41;57.44
56504;BME280;48812;51.606;-0.114;2023-04-06T10:45:44;100567.41;;;17.41;57.53
56504;BME280;48812;51.606;-0.114;2023-04-06T10:48:42;100574.56;;;17.41;56.84
56504;BME280;48812;51.606;-0.114;2023-04-06T10:51:18;100579.91;;;17.41;57.82
56504;BME280;48812;51.606;-0.114;2023-04-06T10:53:50;100585.25;;;17.41;57.15
56504;BME280;48812;51.606;-0.114;2023-04-06T10:56:27;100583.50;;;17.40;57.86
56504;BME280;48812;51.606;-0.114;2023-04-06T10:59:03;100589.78;;;17.39;57.47
56504;BME280;48812;51.606;-0.114;2023-04-06T11:01:36;100594.28;;;17.38;57.40
56504;BME280;48812;51.606;-0.114;2023-04-06T11:04:10;100596.94;;;17.38;57.18
56504;BME280;48812;51.606;-0.114;2023-04-06T11:06:49;100603.25;;;17.37;56.80
56504;BME280;48812;51.606;-0.114;2023-04-06T11:09:26;100599.69;;;17.37;57.83
56504;BME280;48812;51.606;-0.114;2023-04-06T11:11:58;100597.97;;;17.36;57.60
56504;BME280;48812;51.606;-0.114;2023-04-06T11:14:31;100596.16;;;17.36;57.42
56504;BME280;48812;51.606;-0.114;2023-04-06T11:17:05;100596.25;;;17.35;57.24
56504;BME280;48812;51.606;-0.114;2023-04-06T11:19:40;100601.50;;;17.36;57.29
56504;BME280;48812;51.606;-0.114;2023-04-06T11:22:13;100594.34;;;17.37;57.46
56504;BME280;48812;51.606;-0.114;2023-04-06T11:24:47;100596.16;;;17.36;57.36
56504;BME280;48812;51.606;-0.114;2023-04-06T11:27:25;100604.97;;;17.38;57.49
56504;BME280;48812;51.606;-0.114;2023-04-06T11:30:00;100605.81;;;17.39;57.25
56504;BME280;48812;51.606;-0.114;2023-04-06T11:32:39;100604.91;;;17.40;57.14
56504;BME280;48812;51.606;-0.114;2023-04-06T11:35:22;100603.97;;;17.41;57.67
56504;BME280;48812;51.606;-0.114;2023-04-06T11:37:54;100610.31;;;17.38;57.37
56504;BME280;48812;51.606;-0.114;2023-04-06T11:40:30;100611.16;;;17.39;56.85
56504;BME280;48812;51.606;-0.114;2023-04-06T11:43:05;100603.25;;;17.37;57.04
56504;BME280;48812;51.606;-0.114;2023-04-06T11:45:39;100614.88;;;17.36;57.32
56504;BME280;48812;51.606;-0.114;2023-04-06T11:48:20;100622.97;;;17.35;56.88
56504;BME280;48812;51.606;-0.114;2023-04-06T11:50:58;100617.69;;;17.33;57.03
56504;BME280;48812;51.606;-0.114;2023-04-06T11:53:32;100620.38;;;17.33;57.20
56504;BME280;48812;51.606;-0.114;2023-04-06T11:56:25;100620.44;;;17.31;57.59
56504;BME280;48812;51.606;-0.114;2023-04-06T11:59:02;100620.44;;;17.31;56.82
56504;BME280;48812;51.606;-0.114;2023-04-06T12:01:34;100621.38;;;17.30;57.42
56504;BME280;48812;51.606;-0.114;2023-04-06T12:04:18;100623.19;;;17.30;57.10
56504;BME280;48812;51.606;-0.114;2023-04-06T12:06:50;100625.84;;;17.30;57.00
56504;BME280;48812;51.606;-0.114;2023-04-06T12:09:27;100621.38;;;17.30;57.57
56504;BME280;48812;51.606;-0.114;2023-04-06T12:11:59;100618.69;;;17.30;57.14
56504;BME280;48812;51.606;-0.114;2023-04-06T12:14:32;100623.91;;;17.33;57.15
56504;BME280;48812;51.606;-0.114;2023-04-06T12:17:05;100620.28;;;17.35;57.33
56504;BME280;48812;51.606;-0.114;2023-04-06T12:19:37;100626.44;;;17.37;57.29
56504;BME280;48812;51.606;-0.114;2023-04-06T12:22:11;100623.59;;;17.40;57.22
56504;BME280;48812;51.606;-0.114;2023-04-06T12:24:43;100617.31;;;17.41;57.21
56504;BME280;48812;51.606;-0.114;2023-04-06T12:27:15;100624.25;;;17.45;57.47
56504;BME280;48812;51.606;-0.114;2023-04-06T12:29:48;100612.63;;;17.46;56.87
56504;BME280;48812;51.606;-0.114;2023-04-06T12:32:20;100615.16;;;17.49;57.21
56504;BME280;48812;51.606;-0.114;2023-04-06T12:34:52;100622.19;;;17.50;57.25
56504;BME280;48812;51.606;-0.114;2023-04-06T12:37:25;100625.69;;;17.52;56.92
56504;BME280;48812;51.606;-0.114;2023-04-06T12:39:59;100617.66;;;17.52;57.40
56504;BME280;48812;51.606;-0.114;2023-04-06T12:42:33;100631.97;;;17.51;57.19
56504;BME280;48812;51.606;-0.114;2023-04-06T12:45:05;100622.19;;;17.50;57.29
56504;BME280;48812;51.606;-0.114;2023-04-06T12:47:39;100634.78;;;17.48;56.54
56504;BME280;48812;51.606;-0.114;2023-04-06T12:50:12;100635.72;;;17.47;57.07
56504;BME280;48812;51.606;-0.114;2023-04-06T12:52:46;100627.69;;;17.47;57.07
56504;BME280;48812;51.606;-0.114;2023-04-06T12:55:28;100637.47;;;17.48;57.34
56504;BME280;48812;51.606;-0.114;2023-04-06T13:10:15;100639.34;;;17.46;57.35
56504;BME280;48812;51.606;-0.114;2023-04-06T13:12:47;100644.69;;;17.46;57.25
56504;BME280;48812;51.606;-0.114;2023-04-06T13:15:22;100644.69;;;17.46;56.80
56504;BME280;48812;51.606;-0.114;2023-04-06T13:17:55;100631.25;;;17.47;57.01
56504;BME280;48812;51.606;-0.114;2023-04-06T13:20:27;100633.72;;;17.52;56.80
56504;BME280;48812;51.606;-0.114;2023-04-06T13:23:00;100632.66;;;17.55;57.15
56504;BME280;48812;51.606;-0.114;2023-04-06T13:25:33;100638.72;;;17.58;56.64
56504;BME280;48812;51.606;-0.114;2023-04-06T13:28:05;100635.13;;;17.59;56.21
56504;BME280;48812;51.606;-0.114;2023-04-06T13:30:41;100634.97;;;17.62;56.26
56504;BME280;48812;51.606;-0.114;2023-04-06T13:33:13;100632.16;;;17.65;56.61
56504;BME280;48812;51.606;-0.114;2023-04-06T13:35:46;100643.63;;;17.67;56.21
56504;BME280;48812;51.606;-0.114;2023-04-06T13:38:20;100637.34;;;17.68;56.18
56504;BME280;48812;51.606;-0.114;2023-04-06T13:40:57;100645.19;;;17.72;57.02